• Join FlightAware (Why Join?)
  • Login
  • US Flag 
04:34AM EST


 

Airport Tracker/Info


-or-


 

Live Flight TrackerFlight Track Log ✈ N283PT ✈ 16-Feb-2014 ✈ KTVC - KFTY

Flight Track Log - Related Links

Times and Time Zones

All times are in EST time to prevent confusion due to time zone crossing. See the N283PT flight status page for this flight to view local times or setup timezone preferences in your user account.

Time Position Orientation Groundspeed Altitude Reporting Facility
EST Latitude Longitude Course Direction KTS MPH feet Rate Location/Type
12:52PM 44.7411 -85.6333 172° South 153 176 1,800  Level Chicago Center
12:53PM 44.7525 -85.6150 49° Northeast 213 245 1,900 120 Climbing Minneapolis Center
12:54PM 44.7464 -85.5575 98° East 169 194 2,100 720 Climbing Minneapolis Center
12:55PM 44.7053 -85.5400 163° South 169 194 3,400 1,260 Climbing Minneapolis Center
12:56PM 44.6633 -85.5353 175° South 157 181 4,700 1,080 Climbing Minneapolis Center
12:57PM 44.6206 -85.5286 174° South 155 178 5,700 1,080 Climbing Minneapolis Center
12:58PM 44.2049 -85.5212 172° South  Level Estimated
12:59PM 44.5672 -85.5206 174° South 157 181 7,000  Level Minneapolis Center
01:00PM 44.5214 -85.5117 172° South 162 186 8,100 1,020 Climbing Minneapolis Center
01:01PM 44.4747 -85.5039 173° South 167 192 9,200 960 Climbing Minneapolis Center
01:02PM 44.4258 -85.4994 176° South 172 198 10,100 900 Climbing Minneapolis Center
01:03PM 44.3747 -85.4939 176° South 180 207 11,100 1,020 Climbing Minneapolis Center
01:04PM 44.3247 -85.4883 175° South 181 208 12,200 900 Climbing Minneapolis Center
01:05PM 44.2731 -85.4806 174° South 184 212 13,000 780 Climbing Minneapolis Center
01:06PM 44.2186 -85.4731 174° South 193 222 13,900 840 Climbing Minneapolis Center
01:07PM 44.1511 -85.4622 173° South 200 230 14,800 840 Climbing Minneapolis Center
01:08PM 44.0908 -85.4544 175° South 212 244 15,700 840 Climbing Minneapolis Center
01:09PM 44.0281 -85.4467 175° South 215 247 16,600 780 Climbing Minneapolis Center
01:10PM 43.9672 -85.4389 175° South 218 251 17,400 660 Climbing Minneapolis Center
01:11PM 43.9056 -85.4303 174° South 222 255 18,000 600 Climbing Minneapolis Center
01:12PM 43.8442 -85.4217 174° South 221 254 18,700 720 Climbing Minneapolis Center
01:13PM 43.7825 -85.4125 174° South 223 257 19,600 840 Climbing Minneapolis Center
01:14PM 43.7228 -85.4044 174° South 218 251 20,500 780 Climbing Minneapolis Center
01:15PM 43.6517 -85.3950 175° South 215 247 21,300 720 Climbing Minneapolis Center
01:16PM 43.5908 -85.3881 175° South 218 251 22,000 540 Climbing Minneapolis Center
01:17PM 43.5306 -85.3789 174° South 219 252 22,600 540 Climbing Chicago Center
01:18PM 43.4550 -85.3697 175° South 227 261 23,200 480 Climbing Chicago Center
01:19PM 43.3889 -85.3600 174° South 236 272 23,700 360 Climbing Chicago Center
01:20PM 43.3197 -85.3519 175° South 246 283 24,000 120 Climbing Chicago Center
01:21PM 43.2469 -85.3433 175° South 259 298 24,000  Level Chicago Center
01:22PM 43.1700 -85.3386 177° South 273 314 24,000  Level Chicago Center
01:23PM 43.0925 -85.3381 180° South 277 319 24,000  Level Chicago Center
01:24PM 43.0136 -85.3367 179° South 282 325 24,000  Level Chicago Center
01:25PM 42.9350 -85.3333 178° South 281 323 24,000  Level Chicago Center
01:26PM 42.8403 -85.3306 179° South 282 325 24,000  Level Chicago Center
01:27PM 42.7619 -85.3300 180° South 282 325 24,000  Level Chicago Center
01:28PM 42.6836 -85.3264 178° South 281 323 24,000  Level Chicago Center
01:30PM 42.6050 -85.3253 179° South 281 323 24,000  Level Chicago Center
01:31PM 42.5264 -85.3225 179° South 283 326 24,000  Level Chicago Center
01:32PM 42.4469 -85.3167 177° South 285 328 24,000  Level Chicago Center
01:33PM 42.3675 -85.3119 177° South 285 328 24,000  Level Chicago Center
01:34PM 42.2711 -85.3067 178° South 288 331 24,000  Level Chicago Center
01:35PM 42.1900 -85.3019 178° South 290 334 24,000  Level Chicago Center
01:36PM 42.1103 -85.2978 178° South 287 330 24,000  Level Chicago Center
01:37PM 42.0303 -85.2922 177° South 287 330 24,000  Level Chicago Center
01:38PM 41.9411 -85.2864 177° South 285 328 24,000  Level Chicago Center
01:39PM 41.8614 -85.2817 177° South 285 328 24,000  Level Chicago Center
01:40PM 41.7817 -85.2767 177° South 286 329 24,000  Level Chicago Center
01:41PM 41.7011 -85.2725 178° South 286 329 24,000  Level Chicago Center
01:42PM 41.6206 -85.2678 177° South 285 328 24,000  Level Chicago Center
01:43PM 41.5397 -85.2631 177° South 285 328 24,000  Level Chicago Center
01:44PM 41.4600 -85.2578 177° South 285 328 24,000  Level Chicago Center
01:45PM 41.3808 -85.2525 177° South 284 327 24,000  Level Chicago Center
01:46PM 41.3019 -85.2472 177° South 284 327 24,000  Level Chicago Center
01:47PM 41.2075 -85.2425 178° South 282 325 24,000  Level Chicago Center
01:48PM 41.1289 -85.2369 177° South 283 326 24,000  Level Chicago Center
01:49PM 41.0522 -85.2328 178° South 279 321 24,000  Level Chicago Center
01:50PM 40.9756 -85.2289 178° South 277 319 24,000  Level Chicago Center
01:51PM 40.8997 -85.2236 177° South 274 315 24,000  Level Chicago Center
01:52PM 40.8242 -85.2192 177° South 272 313 24,000  Level Chicago Center
01:53PM 40.7500 -85.2158 178° South 270 311 24,000  Level Chicago Center
01:54PM 40.6594 -85.2117 178° South 270 311 24,000  Level Chicago Center
01:55PM 40.5894 -85.2100 179° South 267 307 24,000  Level Chicago Center
01:56PM 40.5136 -85.2028 176° South 271 312 24,000  Level Chicago Center
01:57PM 40.4381 -85.1997 178° South 272 313 24,000  Level Chicago Center
01:58PM 40.3619 -85.1950 177° South 271 312 24,000  Level Indianapolis Center
01:59PM 40.2872 -85.1900 177° South 271 312 24,000  Level Indianapolis Center
02:00PM 40.2128 -85.1850 177° South 271 312 24,000  Level Indianapolis Center
02:01PM 40.1383 -85.1808 178° South 271 312 24,000  Level Indianapolis Center
02:02PM 40.0642 -85.1772 178° South 270 311 24,000  Level Indianapolis Center
02:03PM 39.9744 -85.1694 176° South 270 311 24,000  Level Indianapolis Center
02:04PM 39.9003 -85.1647 177° South 270 311 24,000  Level Indianapolis Center
02:05PM 39.8275 -85.1603 177° South 269 310 24,000  Level Indianapolis Center
02:06PM 39.7528 -85.1556 177° South 268 308 24,000  Level Indianapolis Center
02:07PM 39.6789 -85.1508 177° South 268 308 24,000  Level Indianapolis Center
02:09PM 39.6053 -85.1472 178° South 268 308 24,000  Level Indianapolis Center
02:10PM 39.5311 -85.1431 178° South 268 308 24,000  Level Indianapolis Center
02:11PM 39.4575 -85.1392 178° South 268 308 24,000  Level Indianapolis Center
02:12PM 39.3703 -85.1342 177° South 266 306 24,000  Level Indianapolis Center
02:13PM 39.2978 -85.1303 178° South 263 303 24,000  Level Indianapolis Center
02:14PM 39.2247 -85.1256 177° South 263 303 24,000  Level Indianapolis Center
02:15PM 39.1519 -85.1219 178° South 263 303 24,000  Level Indianapolis Center
02:16PM 39.0789 -85.1167 177° South 263 303 24,000  Level Indianapolis Center
02:17PM 39.0064 -85.1139 178° South 262 302 24,000  Level Indianapolis Center
02:18PM 38.9342 -85.1097 177° South 262 302 24,000  Level Indianapolis Center
02:19PM 38.8619 -85.1044 177° South 262 302 24,000  Level Indianapolis Center
02:20PM 38.7892 -85.1019 178° South 262 302 24,000  Level Indianapolis Center
02:21PM 38.7031 -85.0975 178° South 262 302 24,000  Level Indianapolis Center
02:22PM 38.6306 -85.0928 177° South 261 300 24,000  Level Indianapolis Center
02:23PM 38.5633 -85.0897 178° South 261 300 24,000  Level Indianapolis Center
02:24PM 38.4786 -85.0833 177° South 261 300 24,000  Level Indianapolis Center
02:25PM 38.4069 -85.0811 179° South 260 299 24,000  Level Indianapolis Center
02:26PM 38.3353 -85.0769 177° South 259 298 24,000  Level Indianapolis Center
02:27PM 38.2642 -85.0725 177° South 258 297 24,000  Level Indianapolis Center
02:28PM 38.1931 -85.0681 177° South 258 297 24,000  Level Indianapolis Center
02:29PM 38.1206 -85.0636 177° South 258 297 24,000  Level Indianapolis Center
02:30PM 38.0489 -85.0600 178° South 258 297 24,000  Level Indianapolis Center
02:31PM 37.9778 -85.0556 177° South 258 297 24,000  Level Indianapolis Center
02:32PM 37.8939 -85.0511 178° South 258 297 24,000  Level Indianapolis Center
02:33PM 37.8203 -85.0478 178° South 258 297 24,000  Level Indianapolis Center
02:34PM 37.7469 -85.0450 178° South 261 300 24,000  Level Indianapolis Center
02:35PM 37.6767 -85.0397 177° South 259 298 24,000  Level Indianapolis Center
02:36PM 37.6053 -85.0364 178° South 259 298 24,000  Level Indianapolis Center
02:37PM 37.5342 -85.0328 178° South 258 297 24,000  Level Indianapolis Center
02:38PM 37.4622 -85.0297 178° South 258 297 24,000  Level Indianapolis Center
02:39PM 37.3789 -85.0242 177° South 257 296 24,000  Level Indianapolis Center
02:40PM 37.3075 -85.0206 178° South 257 296 24,000  Level Indianapolis Center
02:41PM 37.2367 -85.0167 177° South 257 296 24,000  Level Indianapolis Center
02:42PM 37.1658 -85.0122 177° South 256 295 24,000  Level Indianapolis Center
02:43PM 37.0947 -85.0094 178° South 256 295 24,000  Level Indianapolis Center
02:44PM 37.0164 -85.0047 177° South 256 295 24,000  Level Indianapolis Center
02:45PM 36.9456 -85.0008 177° South 256 295 24,000  Level Indianapolis Center
02:46PM 36.8744 -84.9972 178° South 256 295 24,000  Level Indianapolis Center
02:47PM 36.8033 -84.9944 178° South 256 295 24,000  Level Indianapolis Center
02:48PM 36.7322 -84.9908 178° South 256 295 24,000  Level Indianapolis Center
02:50PM 36.6589 -84.9867 177° South 258 297 24,000  Level Indianapolis Center
02:51PM 36.5733 -84.9833 178° South 258 297 24,000 -300 Level Indianapolis Center
02:52PM 36.4978 -84.9783 177° South 266 306 23,400 -540 Descending Indianapolis Center
02:53PM 36.4197 -84.9739 177° South 276 318 22,900 -540 Descending Indianapolis Center
02:54PM 36.3425 -84.9706 178° South 276 318 22,300 -480 Descending Indianapolis Center
02:55PM 36.2664 -84.9664 177° South 276 318 22,000 -180 Descending Indianapolis Center
02:56PM 36.2008 -84.9794 189° South 245 282 22,000  Level Indianapolis Center
02:57PM 36.1339 -84.9883 186° South 243 280 22,000  Level Indianapolis Center
02:58PM 36.0683 -84.9981 187° South 242 278 22,000  Level Indianapolis Center
02:59PM 35.9903 -85.0083 186° South 240 276 22,000  Level Indianapolis Center
03:00PM 35.9331 -85.0175 187° South 239 275 22,000  Level Indianapolis Center
03:01PM 35.8708 -85.0278 188° South 237 273 22,000  Level Atlanta Center
03:02PM 35.7956 -85.0397 187° South 237 273 22,000  Level Atlanta Center
03:03PM 35.7308 -85.0467 185° South 237 273 22,000  Level Atlanta Center
03:04PM 35.6661 -85.0561 187° South 237 273 22,000  Level Atlanta Center
03:05PM 35.5992 -85.0656 187° South 237 273 22,000  Level Atlanta Center
03:06PM 35.5344 -85.0750 187° South 237 273 22,000  Level Atlanta Center
03:07PM 35.4697 -85.0842 187° South 237 273 22,000  Level Atlanta Center
03:08PM 35.4050 -85.0936 187° South 237 273 22,000  Level Atlanta Center
03:09PM 35.3403 -85.1031 187° South 237 273 22,000  Level Atlanta Center
03:10PM 35.2733 -85.1122 186° South 237 273 22,000  Level Atlanta Center
03:11PM 35.2108 -85.1192 185° South 237 273 22,000  Level Atlanta Center
03:12PM 35.1481 -85.1286 187° South 237 273 22,000 -300 Level Atlanta Center
03:13PM 35.0811 -85.1403 188° South 237 273 21,500 -900 Descending Atlanta Center
03:14PM 35.0061 -85.1494 186° South 252 290 20,200 -1,260 Descending Atlanta Center
03:15PM 34.9286 -85.1536 183° South 269 310 19,000 900 Descending Atlanta Center
03:16PM 34.8517 -85.1525 179° South 281 323 22,000 -1,620 Climbing Atlanta Center
03:17PM 34.7744 -85.1464 176° South 281 323 15,800 -3,840 Descending Atlanta Center
03:18PM 34.6972 -85.1453 179° South 281 323 14,400 -1,560 Descending Atlanta Center
03:19PM 34.6264 -85.1394 176° South 269 310 12,700 -1,500 Descending Atlanta Center
03:20PM 34.5594 -85.1358 177° South 269 310 11,500 -1,260 Descending Atlanta Center
03:21PM 34.4931 -85.0897 150° Southeast 269 310 10,200 -1,320 Descending Atlanta Center
03:22PM 34.4308 -85.0411 147° Southeast 274 315 8,900 -1,140 Descending Atlanta Center
03:23PM 34.3708 -84.9925 146° Southeast 265 305 8,000 -540 Descending Atlanta Center
03:24PM 34.3169 -84.9542 150° Southeast 240 276 7,900 -60 Descending Atlanta Center
03:25PM 34.2669 -84.9161 148° Southeast 219 252 7,900 -60 Level Atlanta Center
03:26PM 34.2192 -84.8803 148° Southeast 209 241 7,800 -300 Descending Atlanta Center
03:27PM 34.1631 -84.8372 148° Southeast 209 241 7,400 -480 Descending Atlanta Center
03:28PM 34.1092 -84.7939 146° Southeast 215 247 6,900 -660 Descending Atlanta Center
03:29PM 34.0594 -84.7533 146° Southeast 222 255 6,100 -900 Descending Atlanta Center
03:30PM 34.0094 -84.7131 146° Southeast 222 255 5,100 -600 Descending Atlanta Center
03:31PM 33.9658 -84.6775 146° Southeast 209 241 5,000 -540 Descending Atlanta Center
03:32PM 33.9264 -84.6447 145° Southeast 192 221 4,100 -840 Descending Atlanta Center
03:34PM 33.8500 -84.5500 134° Southeast 165 190 2,300 -660 Descending Atlanta TRACON
03:35PM 33.8167 -84.5167 140° Southeast 135 155 2,000 -540 Descending Atlanta TRACON
03:36PM 33.7833 -84.5000 157° South 128 147 1,300 -720 Descending Atlanta TRACON
03:38PM 33.7791 -84.5214 155° Southeast  Level Estimated
03:45PM 33.7791 -84.5214 320° Northwest  Level Estimated
03:46PM 33.7791 -84.5214 320° Northwest  Level Estimated